sensor_id;sensor_type;location;lat;lon;timestamp;P1;durP1;ratioP1;P2;durP2;ratioP2
17449;SDS011;8842;51.244;7.102;2022-08-04T00:01:23;10.93;;;10.32;;
17449;SDS011;8842;51.244;7.102;2022-08-04T00:06:33;10.72;;;10.13;;
17449;SDS011;8842;51.244;7.102;2022-08-04T00:11:48;10.75;;;10.15;;
17449;SDS011;8842;51.244;7.102;2022-08-04T00:17:02;11.33;;;10.38;;
17449;SDS011;8842;51.244;7.102;2022-08-04T00:27:19;10.70;;;10.10;;
17449;SDS011;8842;51.244;7.102;2022-08-04T00:32:23;10.90;;;10.10;;
17449;SDS011;8842;51.244;7.102;2022-08-04T00:37:37;11.25;;;10.55;;
17449;SDS011;8842;51.244;7.102;2022-08-04T00:42:43;10.82;;;10.23;;
17449;SDS011;8842;51.244;7.102;2022-08-04T00:48:03;10.80;;;10.20;;
17449;SDS011;8842;51.244;7.102;2022-08-04T00:53:18;11.25;;;10.60;;
17449;SDS011;8842;51.244;7.102;2022-08-04T00:58:28;11.50;;;10.90;;
17449;SDS011;8842;51.244;7.102;2022-08-04T01:03:47;10.93;;;10.32;;
17449;SDS011;8842;51.244;7.102;2022-08-04T01:14:15;11.33;;;10.50;;
17449;SDS011;8842;51.244;7.102;2022-08-04T01:25:17;11.65;;;10.95;;
17449;SDS011;8842;51.244;7.102;2022-08-04T01:30:32;11.00;;;10.40;;
17449;SDS011;8842;51.244;7.102;2022-08-04T01:35:39;11.10;;;10.50;;
17449;SDS011;8842;51.244;7.102;2022-08-04T01:40:53;10.65;;;10.05;;
17449;SDS011;8842;51.244;7.102;2022-08-04T01:46:01;10.95;;;10.35;;
17449;SDS011;8842;51.244;7.102;2022-08-04T01:51:13;10.98;;;10.38;;
17449;SDS011;8842;51.244;7.102;2022-08-04T01:56:17;10.98;;;10.38;;
17449;SDS011;8842;51.244;7.102;2022-08-04T02:01:31;11.08;;;10.48;;
17449;SDS011;8842;51.244;7.102;2022-08-04T02:06:39;11.20;;;10.60;;
17449;SDS011;8842;51.244;7.102;2022-08-04T02:11:59;11.05;;;10.45;;
17449;SDS011;8842;51.244;7.102;2022-08-04T02:17:07;11.20;;;10.60;;
17449;SDS011;8842;51.244;7.102;2022-08-04T02:22:21;11.00;;;10.30;;
17449;SDS011;8842;51.244;7.102;2022-08-04T02:27:28;12.00;;;10.60;;
17449;SDS011;8842;51.244;7.102;2022-08-04T02:32:42;10.98;;;10.38;;
17449;SDS011;8842;51.244;7.102;2022-08-04T02:37:52;11.63;;;10.70;;
17449;SDS011;8842;51.244;7.102;2022-08-04T02:43:03;10.80;;;10.20;;
17449;SDS011;8842;51.244;7.102;2022-08-04T02:53:21;10.93;;;10.32;;
17449;SDS011;8842;51.244;7.102;2022-08-04T02:58:28;11.10;;;10.30;;
17449;SDS011;8842;51.244;7.102;2022-08-04T03:03:43;11.30;;;10.60;;
17449;SDS011;8842;51.244;7.102;2022-08-04T03:14:30;11.10;;;10.50;;
17449;SDS011;8842;51.244;7.102;2022-08-04T03:37:05;11.12;;;10.43;;
17449;SDS011;8842;51.244;7.102;2022-08-04T03:42:23;10.05;;;9.55;;
17449;SDS011;8842;51.244;7.102;2022-08-04T03:47:41;10.70;;;10.10;;
17449;SDS011;8842;51.244;7.102;2022-08-04T03:53:21;10.90;;;10.30;;
17449;SDS011;8842;51.244;7.102;2022-08-04T04:04:29;10.70;;;10.10;;
17449;SDS011;8842;51.244;7.102;2022-08-04T04:15:19;10.80;;;10.20;;
17449;SDS011;8842;51.244;7.102;2022-08-04T04:26:50;10.35;;;9.75;;
17449;SDS011;8842;51.244;7.102;2022-08-04T04:31:58;10.70;;;10.10;;
17449;SDS011;8842;51.244;7.102;2022-08-04T04:37:18;11.10;;;10.50;;
17449;SDS011;8842;51.244;7.102;2022-08-04T04:42:29;11.20;;;10.60;;
17449;SDS011;8842;51.244;7.102;2022-08-04T04:47:55;11.90;;;10.75;;
17449;SDS011;8842;51.244;7.102;2022-08-04T04:58:15;11.40;;;10.80;;
17449;SDS011;8842;51.244;7.102;2022-08-04T05:03:31;11.33;;;10.72;;
17449;SDS011;8842;51.244;7.102;2022-08-04T05:09:05;11.63;;;10.82;;
17449;SDS011;8842;51.244;7.102;2022-08-04T05:14:19;10.90;;;10.30;;
17449;SDS011;8842;51.244;7.102;2022-08-04T05:19:37;10.30;;;9.80;;
17449;SDS011;8842;51.244;7.102;2022-08-04T05:29:56;11.25;;;10.65;;
17449;SDS011;8842;51.244;7.102;2022-08-04T05:35:10;10.75;;;10.15;;
17449;SDS011;8842;51.244;7.102;2022-08-04T05:45:27;10.70;;;10.10;;
17449;SDS011;8842;51.244;7.102;2022-08-04T05:50:33;10.70;;;10.10;;
17449;SDS011;8842;51.244;7.102;2022-08-04T05:55:45;10.58;;;9.98;;
17449;SDS011;8842;51.244;7.102;2022-08-04T06:00:52;10.43;;;9.83;;
17449;SDS011;8842;51.244;7.102;2022-08-04T06:06:04;10.60;;;10.00;;
17449;SDS011;8842;51.244;7.102;2022-08-04T06:16:22;11.03;;;10.43;;
17449;SDS011;8842;51.244;7.102;2022-08-04T06:26:39;11.35;;;10.75;;
17449;SDS011;8842;51.244;7.102;2022-08-04T06:31:45;11.10;;;10.50;;
17449;SDS011;8842;51.244;7.102;2022-08-04T06:36:58;8.93;;;8.53;;
17449;SDS011;8842;51.244;7.102;2022-08-04T06:42:03;10.70;;;10.10;;
17449;SDS011;8842;51.244;7.102;2022-08-04T06:47:15;10.40;;;9.90;;
17449;SDS011;8842;51.244;7.102;2022-08-04T06:52:21;10.82;;;10.23;;
17449;SDS011;8842;51.244;7.102;2022-08-04T06:57:26;10.82;;;10.23;;
17449;SDS011;8842;51.244;7.102;2022-08-04T07:02:41;11.15;;;10.55;;
17449;SDS011;8842;51.244;7.102;2022-08-04T07:07:47;11.65;;;10.85;;
17449;SDS011;8842;51.244;7.102;2022-08-04T07:18:03;10.23;;;9.73;;
17449;SDS011;8842;51.244;7.102;2022-08-04T07:28:18;10.58;;;9.98;;
17449;SDS011;8842;51.244;7.102;2022-08-04T07:38:34;10.53;;;9.93;;
17449;SDS011;8842;51.244;7.102;2022-08-04T07:43:38;10.70;;;10.10;;
17449;SDS011;8842;51.244;7.102;2022-08-04T07:48:43;10.40;;;9.80;;
17449;SDS011;8842;51.244;7.102;2022-08-04T07:53:48;10.58;;;9.80;;
17449;SDS011;8842;51.244;7.102;2022-08-04T08:09:29;10.50;;;9.90;;
17449;SDS011;8842;51.244;7.102;2022-08-04T08:14:36;10.23;;;9.65;;
17449;SDS011;8842;51.244;7.102;2022-08-04T08:19:48;10.10;;;9.50;;
17449;SDS011;8842;51.244;7.102;2022-08-04T08:24:52;9.25;;;8.75;;
17449;SDS011;8842;51.244;7.102;2022-08-04T08:30:05;9.70;;;9.00;;
17449;SDS011;8842;51.244;7.102;2022-08-04T08:40:25;10.50;;;9.90;;
17449;SDS011;8842;51.244;7.102;2022-08-04T08:45:54;10.55;;;9.95;;
17449;SDS011;8842;51.244;7.102;2022-08-04T08:51:16;11.10;;;9.85;;
17449;SDS011;8842;51.244;7.102;2022-08-04T08:56:50;10.00;;;9.40;;
17449;SDS011;8842;51.244;7.102;2022-08-04T09:02:16;9.55;;;9.05;;
17449;SDS011;8842;51.244;7.102;2022-08-04T09:07:36;9.80;;;9.30;;
17449;SDS011;8842;51.244;7.102;2022-08-04T09:12:55;10.38;;;9.78;;
17449;SDS011;8842;51.244;7.102;2022-08-04T09:18:09;10.23;;;9.73;;
17449;SDS011;8842;51.244;7.102;2022-08-04T09:23:25;10.60;;;10.00;;
17449;SDS011;8842;51.244;7.102;2022-08-04T09:28:37;10.35;;;9.83;;
17449;SDS011;8842;51.244;7.102;2022-08-04T09:33:49;10.10;;;9.60;;
17449;SDS011;8842;51.244;7.102;2022-08-04T09:39:03;9.78;;;9.28;;
17449;SDS011;8842;51.244;7.102;2022-08-04T09:44:20;9.78;;;9.28;;
17449;SDS011;8842;51.244;7.102;2022-08-04T09:49:28;9.80;;;9.30;;
17449;SDS011;8842;51.244;7.102;2022-08-04T09:54:44;10.23;;;9.73;;
17449;SDS011;8842;51.244;7.102;2022-08-04T09:59:53;10.70;;;10.10;;
17449;SDS011;8842;51.244;7.102;2022-08-04T10:05:12;9.90;;;9.40;;
17449;SDS011;8842;51.244;7.102;2022-08-04T10:15:32;8.85;;;8.35;;
17449;SDS011;8842;51.244;7.102;2022-08-04T10:20:45;9.70;;;9.20;;
17449;SDS011;8842;51.244;7.102;2022-08-04T10:26:01;9.83;;;9.20;;
17449;SDS011;8842;51.244;7.102;2022-08-04T10:31:08;10.20;;;9.70;;
17449;SDS011;8842;51.244;7.102;2022-08-04T10:36:21;9.90;;;9.40;;
17449;SDS011;8842;51.244;7.102;2022-08-04T10:41:31;8.90;;;8.40;;
17449;SDS011;8842;51.244;7.102;2022-08-04T10:46:50;9.10;;;8.60;;
17449;SDS011;8842;51.244;7.102;2022-08-04T10:51:59;8.80;;;8.40;;
17449;SDS011;8842;51.244;7.102;2022-08-04T10:57:20;9.48;;;8.98;;
17449;SDS011;8842;51.244;7.102;2022-08-04T11:02:30;9.50;;;9.00;;
17449;SDS011;8842;51.244;7.102;2022-08-04T11:07:46;10.40;;;9.80;;
17449;SDS011;8842;51.244;7.102;2022-08-04T11:13:00;11.22;;;9.68;;
17449;SDS011;8842;51.244;7.102;2022-08-04T11:23:19;9.58;;;9.08;;
17449;SDS011;8842;51.244;7.102;2022-08-04T11:28:38;10.10;;;9.60;;
17449;SDS011;8842;51.244;7.102;2022-08-04T11:33:49;9.20;;;8.70;;
17449;SDS011;8842;51.244;7.102;2022-08-04T11:38:59;9.78;;;9.28;;
17449;SDS011;8842;51.244;7.102;2022-08-04T11:44:18;11.22;;;10.18;;
17449;SDS011;8842;51.244;7.102;2022-08-04T11:54:43;11.10;;;10.50;;
17449;SDS011;8842;51.244;7.102;2022-08-04T12:05:00;11.03;;;10.43;;
17449;SDS011;8842;51.244;7.102;2022-08-04T12:10:13;11.10;;;10.50;;
17449;SDS011;8842;51.244;7.102;2022-08-04T12:20:40;13.15;;;10.70;;
17449;SDS011;8842;51.244;7.102;2022-08-04T12:30:57;12.50;;;11.73;;
17449;SDS011;8842;51.244;7.102;2022-08-04T12:36:14;11.45;;;10.85;;
17449;SDS011;8842;51.244;7.102;2022-08-04T12:41:24;11.20;;;10.50;;
17449;SDS011;8842;51.244;7.102;2022-08-04T12:46:36;10.93;;;10.32;;
17449;SDS011;8842;51.244;7.102;2022-08-04T12:56:56;10.45;;;9.85;;
17449;SDS011;8842;51.244;7.102;2022-08-04T13:02:00;11.28;;;10.68;;
17449;SDS011;8842;51.244;7.102;2022-08-04T13:07:13;10.72;;;10.13;;
17449;SDS011;8842;51.244;7.102;2022-08-04T13:12:20;11.33;;;10.72;;
17449;SDS011;8842;51.244;7.102;2022-08-04T13:17:44;10.90;;;10.30;;
17449;SDS011;8842;51.244;7.102;2022-08-04T13:22:56;10.35;;;9.75;;
17449;SDS011;8842;51.244;7.102;2022-08-04T13:28:15;10.88;;;10.28;;
17449;SDS011;8842;51.244;7.102;2022-08-04T13:38:32;10.82;;;10.23;;
17449;SDS011;8842;51.244;7.102;2022-08-04T13:48:50;16.62;;;10.13;;
17449;SDS011;8842;51.244;7.102;2022-08-04T13:53:56;10.03;;;9.43;;
17449;SDS011;8842;51.244;7.102;2022-08-04T14:04:15;10.28;;;9.68;;
17449;SDS011;8842;51.244;7.102;2022-08-04T14:09:22;10.00;;;9.50;;
17449;SDS011;8842;51.244;7.102;2022-08-04T14:14:29;10.55;;;9.98;;
17449;SDS011;8842;51.244;7.102;2022-08-04T14:19:47;9.65;;;9.15;;
17449;SDS011;8842;51.244;7.102;2022-08-04T14:25:01;9.65;;;9.15;;
17449;SDS011;8842;51.244;7.102;2022-08-04T14:30:19;8.85;;;8.45;;
17449;SDS011;8842;51.244;7.102;2022-08-04T14:35:32;9.63;;;9.13;;
17449;SDS011;8842;51.244;7.102;2022-08-04T14:45:50;9.98;;;9.48;;
17449;SDS011;8842;51.244;7.102;2022-08-04T14:56:08;10.65;;;10.05;;
17449;SDS011;8842;51.244;7.102;2022-08-04T15:01:13;10.18;;;9.68;;
17449;SDS011;8842;51.244;7.102;2022-08-04T15:06:26;9.65;;;9.15;;
17449;SDS011;8842;51.244;7.102;2022-08-04T15:11:32;9.75;;;9.25;;
17449;SDS011;8842;51.244;7.102;2022-08-04T15:16:44;10.13;;;9.48;;
17449;SDS011;8842;51.244;7.102;2022-08-04T15:21:48;10.05;;;9.55;;
17449;SDS011;8842;51.244;7.102;2022-08-04T15:27:01;10.50;;;9.90;;
17449;SDS011;8842;51.244;7.102;2022-08-04T15:32:07;10.20;;;9.50;;
17449;SDS011;8842;51.244;7.102;2022-08-04T15:37:22;10.53;;;9.93;;
17449;SDS011;8842;51.244;7.102;2022-08-04T15:47:41;8.98;;;8.55;;
17449;SDS011;8842;51.244;7.102;2022-08-04T15:57:58;8.08;;;7.67;;
17449;SDS011;8842;51.244;7.102;2022-08-04T16:08:15;9.60;;;9.10;;
17449;SDS011;8842;51.244;7.102;2022-08-04T16:18:37;10.75;;;10.15;;
17449;SDS011;8842;51.244;7.102;2022-08-04T16:29:38;11.38;;;10.70;;
17449;SDS011;8842;51.244;7.102;2022-08-04T16:34:48;11.12;;;10.53;;
17449;SDS011;8842;51.244;7.102;2022-08-04T16:40:24;11.33;;;10.63;;
17449;SDS011;8842;51.244;7.102;2022-08-04T16:45:41;9.95;;;9.45;;
17449;SDS011;8842;51.244;7.102;2022-08-04T16:51:00;10.35;;;9.75;;
17449;SDS011;8842;51.244;7.102;2022-08-04T16:56:08;9.63;;;9.03;;
17449;SDS011;8842;51.244;7.102;2022-08-04T17:01:20;9.70;;;9.20;;
17449;SDS011;8842;51.244;7.102;2022-08-04T17:06:25;9.70;;;9.20;;
17449;SDS011;8842;51.244;7.102;2022-08-04T17:11:44;9.95;;;9.45;;
17449;SDS011;8842;51.244;7.102;2022-08-04T17:16:49;10.05;;;9.55;;
17449;SDS011;8842;51.244;7.102;2022-08-04T17:21:56;10.18;;;9.60;;
17449;SDS011;8842;51.244;7.102;2022-08-04T17:27:08;10.15;;;9.55;;
17449;SDS011;8842;51.244;7.102;2022-08-04T17:32:14;9.60;;;9.10;;
17449;SDS011;8842;51.244;7.102;2022-08-04T17:42:32;9.75;;;8.95;;
17449;SDS011;8842;51.244;7.102;2022-08-04T17:47:48;9.50;;;9.00;;
17449;SDS011;8842;51.244;7.102;2022-08-04T17:52:59;11.22;;;10.50;;
17449;SDS011;8842;51.244;7.102;2022-08-04T17:58:16;10.75;;;10.15;;
17449;SDS011;8842;51.244;7.102;2022-08-04T18:03:35;10.80;;;10.20;;
17449;SDS011;8842;51.244;7.102;2022-08-04T18:08:39;10.40;;;9.80;;
17449;SDS011;8842;51.244;7.102;2022-08-04T18:13:44;10.15;;;9.58;;
17449;SDS011;8842;51.244;7.102;2022-08-04T18:19:08;9.60;;;9.10;;
17449;SDS011;8842;51.244;7.102;2022-08-04T18:24:13;10.15;;;9.60;;
17449;SDS011;8842;51.244;7.102;2022-08-04T18:29:25;10.55;;;9.95;;
17449;SDS011;8842;51.244;7.102;2022-08-04T18:34:30;10.55;;;9.95;;
17449;SDS011;8842;51.244;7.102;2022-08-04T18:39:34;10.40;;;9.80;;
17449;SDS011;8842;51.244;7.102;2022-08-04T18:44:39;10.40;;;9.80;;
17449;SDS011;8842;51.244;7.102;2022-08-04T18:54:54;10.58;;;9.98;;
17449;SDS011;8842;51.244;7.102;2022-08-04T18:59:59;10.10;;;9.60;;
17449;SDS011;8842;51.244;7.102;2022-08-04T19:05:03;10.70;;;10.10;;
17449;SDS011;8842;51.244;7.102;2022-08-04T19:10:15;11.08;;;10.38;;
17449;SDS011;8842;51.244;7.102;2022-08-04T19:15:20;11.73;;;11.03;;
17449;SDS011;8842;51.244;7.102;2022-08-04T19:20:32;10.55;;;9.95;;
17449;SDS011;8842;51.244;7.102;2022-08-04T19:25:37;10.40;;;9.80;;
17449;SDS011;8842;51.244;7.102;2022-08-04T19:30:49;9.90;;;9.40;;
17449;SDS011;8842;51.244;7.102;2022-08-04T19:35:53;10.00;;;9.50;;
17449;SDS011;8842;51.244;7.102;2022-08-04T19:41:05;10.78;;;10.18;;
17449;SDS011;8842;51.244;7.102;2022-08-04T19:46:09;10.55;;;9.95;;
17449;SDS011;8842;51.244;7.102;2022-08-04T19:51:21;10.80;;;10.20;;
17449;SDS011;8842;51.244;7.102;2022-08-04T19:56:26;10.53;;;9.93;;
17449;SDS011;8842;51.244;7.102;2022-08-04T20:01:38;10.70;;;10.10;;
17449;SDS011;8842;51.244;7.102;2022-08-04T20:06:42;10.68;;;10.08;;
17449;SDS011;8842;51.244;7.102;2022-08-04T20:11:55;12.40;;;11.18;;
17449;SDS011;8842;51.244;7.102;2022-08-04T20:17:00;10.70;;;10.10;;
17449;SDS011;8842;51.244;7.102;2022-08-04T20:22:12;10.72;;;10.13;;
17449;SDS011;8842;51.244;7.102;2022-08-04T20:27:18;10.72;;;10.13;;
17449;SDS011;8842;51.244;7.102;2022-08-04T20:32:30;10.90;;;10.30;;
17449;SDS011;8842;51.244;7.102;2022-08-04T20:37:38;9.90;;;9.40;;
17449;SDS011;8842;51.244;7.102;2022-08-04T20:42:50;10.00;;;9.43;;
17449;SDS011;8842;51.244;7.102;2022-08-04T20:47:54;9.98;;;9.48;;
17449;SDS011;8842;51.244;7.102;2022-08-04T20:53:06;10.03;;;9.53;;
17449;SDS011;8842;51.244;7.102;2022-08-04T21:03:22;10.50;;;9.80;;
17449;SDS011;8842;51.244;7.102;2022-08-04T21:08:26;9.78;;;9.28;;
17449;SDS011;8842;51.244;7.102;2022-08-04T21:13:39;9.93;;;9.43;;
17449;SDS011;8842;51.244;7.102;2022-08-04T21:18:44;10.20;;;9.60;;
17449;SDS011;8842;51.244;7.102;2022-08-04T21:23:55;9.98;;;9.43;;
17449;SDS011;8842;51.244;7.102;2022-08-04T21:29:00;9.85;;;9.35;;
17449;SDS011;8842;51.244;7.102;2022-08-04T21:34:26;10.40;;;9.80;;
17449;SDS011;8842;51.244;7.102;2022-08-04T21:39:31;10.00;;;9.40;;
17449;SDS011;8842;51.244;7.102;2022-08-04T21:44:43;10.13;;;9.55;;
17449;SDS011;8842;51.244;7.102;2022-08-04T21:49:47;10.08;;;9.48;;
17449;SDS011;8842;51.244;7.102;2022-08-04T21:54:59;9.40;;;8.90;;
17449;SDS011;8842;51.244;7.102;2022-08-04T22:05:15;10.58;;;9.98;;
17449;SDS011;8842;51.244;7.102;2022-08-04T22:10:19;10.15;;;9.55;;
17449;SDS011;8842;51.244;7.102;2022-08-04T22:15:31;9.93;;;9.43;;
17449;SDS011;8842;51.244;7.102;2022-08-04T22:20:35;10.40;;;9.85;;
17449;SDS011;8842;51.244;7.102;2022-08-04T22:25:47;10.60;;;10.00;;
17449;SDS011;8842;51.244;7.102;2022-08-04T22:30:51;10.90;;;10.30;;
17449;SDS011;8842;51.244;7.102;2022-08-04T22:36:03;10.88;;;10.28;;
17449;SDS011;8842;51.244;7.102;2022-08-04T22:41:10;10.68;;;10.08;;
17449;SDS011;8842;51.244;7.102;2022-08-04T22:46:20;10.20;;;9.70;;
17449;SDS011;8842;51.244;7.102;2022-08-04T22:51:32;11.83;;;10.90;;
17449;SDS011;8842;51.244;7.102;2022-08-04T22:56:36;10.70;;;10.10;;
17449;SDS011;8842;51.244;7.102;2022-08-04T23:01:48;10.70;;;10.10;;
17449;SDS011;8842;51.244;7.102;2022-08-04T23:12:04;10.00;;;9.50;;
17449;SDS011;8842;51.244;7.102;2022-08-04T23:17:09;10.00;;;9.50;;
17449;SDS011;8842;51.244;7.102;2022-08-04T23:22:21;10.30;;;9.70;;
17449;SDS011;8842;51.244;7.102;2022-08-04T23:27:25;9.70;;;9.20;;
17449;SDS011;8842;51.244;7.102;2022-08-04T23:32:37;9.88;;;9.35;;
17449;SDS011;8842;51.244;7.102;2022-08-04T23:42:53;9.45;;;8.95;;
17449;SDS011;8842;51.244;7.102;2022-08-04T23:47:57;9.40;;;8.90;;
17449;SDS011;8842;51.244;7.102;2022-08-04T23:53:09;9.70;;;9.00;;
17449;SDS011;8842;51.244;7.102;2022-08-04T23:58:13;9.47;;;8.97;;
